Terminal Aerodrome Forecast
Issued by NWS

Home | Current Version | Previous Version | Text Only | Print | Product List | Glossary On
Versions: 1 2 3 4 5 6 7 8 9 10 11 12 13 14 15 16 17 18 19 20
661
FTUS43 KDLH 060535
TAFHYR
TAF
KHYR 060535Z 0606/0706 20005KT P6SM SKC WS010/23030KT
     FM061700 22007G15KT P6SM VCTS SCT120CB BKN250
     FM062300 23007KT P6SM VCTS SCT120CB BKN250
     FM070200 30010KT P6SM VCTS BKN120CB
     FM070400 35012KT P6SM VCTS BKN120CB=

USA.gov is the U.S. government's official web portal to all federal, state and local government web resources and services.